sensor_id;sensor_type;location;lat;lon;timestamp;temperature;humidity
78536;SHT31;67829;51.968;5.684;2024-01-30T00:01:16;10.5;70.1
78536;SHT31;67829;51.968;5.684;2024-01-30T00:03:45;10.4;70.3
78536;SHT31;67829;51.968;5.684;2024-01-30T00:06:13;10.4;70.3
78536;SHT31;67829;51.968;5.684;2024-01-30T00:08:42;10.4;70.2
78536;SHT31;67829;51.968;5.684;2024-01-30T00:11:13;10.4;70.2
78536;SHT31;67829;51.968;5.684;2024-01-30T00:13:41;10.4;70.4
78536;SHT31;67829;51.968;5.684;2024-01-30T00:16:21;10.3;70.5
78536;SHT31;67829;51.968;5.684;2024-01-30T00:18:50;10.3;70.7
78536;SHT31;67829;51.968;5.684;2024-01-30T00:21:20;10.3;70.9
78536;SHT31;67829;51.968;5.684;2024-01-30T00:23:49;10.3;70.8
78536;SHT31;67829;51.968;5.684;2024-01-30T00:26:20;10.3;70.9
78536;SHT31;67829;51.968;5.684;2024-01-30T00:28:50;10.2;71.0
78536;SHT31;67829;51.968;5.684;2024-01-30T00:31:19;10.2;71.2
78536;SHT31;67829;51.968;5.684;2024-01-30T00:33:49;10.2;71.3
78536;SHT31;67829;51.968;5.684;2024-01-30T00:36:20;10.2;71.4
78536;SHT31;67829;51.968;5.684;2024-01-30T00:38:49;10.2;71.6
78536;SHT31;67829;51.968;5.684;2024-01-30T00:41:19;10.1;71.5
78536;SHT31;67829;51.968;5.684;2024-01-30T00:43:47;10.1;71.4
78536;SHT31;67829;51.968;5.684;2024-01-30T00:46:16;10.1;71.5
78536;SHT31;67829;51.968;5.684;2024-01-30T00:48:44;10.1;71.4
78536;SHT31;67829;51.968;5.684;2024-01-30T00:51:13;10.1;71.2
78536;SHT31;67829;51.968;5.684;2024-01-30T00:53:41;10.1;71.3
78536;SHT31;67829;51.968;5.684;2024-01-30T00:56:10;10.0;71.4
78536;SHT31;67829;51.968;5.684;2024-01-30T00:58:38;10.0;71.6
78536;SHT31;67829;51.968;5.684;2024-01-30T01:01:07;10.0;71.7
78536;SHT31;67829;51.968;5.684;2024-01-30T01:03:35;10.0;71.7
78536;SHT31;67829;51.968;5.684;2024-01-30T01:06:04;10.0;71.7
78536;SHT31;67829;51.968;5.684;2024-01-30T01:08:33;10.0;71.7
78536;SHT31;67829;51.968;5.684;2024-01-30T01:11:02;10.0;71.6
78536;SHT31;67829;51.968;5.684;2024-01-30T01:13:31;9.9;71.7
78536;SHT31;67829;51.968;5.684;2024-01-30T01:16:00;9.9;71.6
78536;SHT31;67829;51.968;5.684;2024-01-30T01:18:28;9.9;71.5
78536;SHT31;67829;51.968;5.684;2024-01-30T01:20:57;9.9;71.6
78536;SHT31;67829;51.968;5.684;2024-01-30T01:23:25;9.9;71.6
78536;SHT31;67829;51.968;5.684;2024-01-30T01:25:54;9.9;71.6
78536;SHT31;67829;51.968;5.684;2024-01-30T01:28:22;9.9;71.6
78536;SHT31;67829;51.968;5.684;2024-01-30T01:30:50;9.9;71.6
78536;SHT31;67829;51.968;5.684;2024-01-30T01:33:20;9.9;71.5
78536;SHT31;67829;51.968;5.684;2024-01-30T01:35:49;9.9;71.4
78536;SHT31;67829;51.968;5.684;2024-01-30T01:38:17;9.8;71.3
78536;SHT31;67829;51.968;5.684;2024-01-30T01:40:46;9.8;71.4
78536;SHT31;67829;51.968;5.684;2024-01-30T01:43:14;9.8;71.6
78536;SHT31;67829;51.968;5.684;2024-01-30T01:45:43;9.8;71.7
78536;SHT31;67829;51.968;5.684;2024-01-30T01:48:12;9.8;71.7
78536;SHT31;67829;51.968;5.684;2024-01-30T01:50:42;9.8;71.6
78536;SHT31;67829;51.968;5.684;2024-01-30T01:53:12;9.8;71.6
78536;SHT31;67829;51.968;5.684;2024-01-30T01:55:45;9.8;71.6
78536;SHT31;67829;51.968;5.684;2024-01-30T01:58:14;9.8;71.7
78536;SHT31;67829;51.968;5.684;2024-01-30T02:00:45;9.8;71.6
78536;SHT31;67829;51.968;5.684;2024-01-30T02:03:14;9.8;71.5
78536;SHT31;67829;51.968;5.684;2024-01-30T02:05:48;9.8;71.4
78536;SHT31;67829;51.968;5.684;2024-01-30T02:08:17;9.7;71.4
78536;SHT31;67829;51.968;5.684;2024-01-30T02:10:46;9.7;71.4
78536;SHT31;67829;51.968;5.684;2024-01-30T02:13:15;9.7;71.4
78536;SHT31;67829;51.968;5.684;2024-01-30T02:15:43;9.7;71.3
78536;SHT31;67829;51.968;5.684;2024-01-30T02:18:11;9.7;71.2
78536;SHT31;67829;51.968;5.684;2024-01-30T02:20:40;9.7;71.2
78536;SHT31;67829;51.968;5.684;2024-01-30T02:23:10;9.7;71.2
78536;SHT31;67829;51.968;5.684;2024-01-30T02:25:40;9.7;71.2
78536;SHT31;67829;51.968;5.684;2024-01-30T02:28:11;9.7;71.1
78536;SHT31;67829;51.968;5.684;2024-01-30T02:30:42;9.7;71.0
78536;SHT31;67829;51.968;5.684;2024-01-30T02:33:11;9.7;71.2
78536;SHT31;67829;51.968;5.684;2024-01-30T02:35:39;9.7;71.3
78536;SHT31;67829;51.968;5.684;2024-01-30T02:38:08;9.7;71.2
78536;SHT31;67829;51.968;5.684;2024-01-30T02:40:37;9.7;71.1
78536;SHT31;67829;51.968;5.684;2024-01-30T02:43:05;9.7;71.2
78536;SHT31;67829;51.968;5.684;2024-01-30T02:45:34;9.7;71.1
78536;SHT31;67829;51.968;5.684;2024-01-30T02:48:03;9.7;71.0
78536;SHT31;67829;51.968;5.684;2024-01-30T02:50:32;9.7;71.1
78536;SHT31;67829;51.968;5.684;2024-01-30T02:53:00;9.7;71.1
78536;SHT31;67829;51.968;5.684;2024-01-30T02:55:29;9.7;71.0
78536;SHT31;67829;51.968;5.684;2024-01-30T02:57:57;9.7;71.1
78536;SHT31;67829;51.968;5.684;2024-01-30T03:00:27;9.7;71.0
78536;SHT31;67829;51.968;5.684;2024-01-30T03:02:56;9.7;70.9
78536;SHT31;67829;51.968;5.684;2024-01-30T03:05:24;9.7;70.7
78536;SHT31;67829;51.968;5.684;2024-01-30T03:07:53;9.7;70.4
78536;SHT31;67829;51.968;5.684;2024-01-30T03:10:22;9.7;70.4
78536;SHT31;67829;51.968;5.684;2024-01-30T03:12:50;9.8;70.4
78536;SHT31;67829;51.968;5.684;2024-01-30T03:15:19;9.8;70.2
78536;SHT31;67829;51.968;5.684;2024-01-30T03:17:47;9.8;70.3
78536;SHT31;67829;51.968;5.684;2024-01-30T03:20:17;9.7;70.2
78536;SHT31;67829;51.968;5.684;2024-01-30T03:22:45;9.7;70.1
78536;SHT31;67829;51.968;5.684;2024-01-30T03:25:14;9.7;70.2
78536;SHT31;67829;51.968;5.684;2024-01-30T03:27:42;9.7;70.3
78536;SHT31;67829;51.968;5.684;2024-01-30T03:30:12;9.7;70.3
78536;SHT31;67829;51.968;5.684;2024-01-30T03:32:40;9.7;70.4
78536;SHT31;67829;51.968;5.684;2024-01-30T03:35:10;9.7;70.4
78536;SHT31;67829;51.968;5.684;2024-01-30T03:37:38;9.7;70.5
78536;SHT31;67829;51.968;5.684;2024-01-30T03:40:08;9.7;70.4
78536;SHT31;67829;51.968;5.684;2024-01-30T03:42:37;9.7;70.5
78536;SHT31;67829;51.968;5.684;2024-01-30T03:45:06;9.7;70.4
78536;SHT31;67829;51.968;5.684;2024-01-30T03:47:35;9.8;70.2
78536;SHT31;67829;51.968;5.684;2024-01-30T03:50:04;9.8;70.2
78536;SHT31;67829;51.968;5.684;2024-01-30T03:52:32;9.8;70.2
78536;SHT31;67829;51.968;5.684;2024-01-30T03:55:01;9.8;70.2
78536;SHT31;67829;51.968;5.684;2024-01-30T03:57:30;9.8;70.1
78536;SHT31;67829;51.968;5.684;2024-01-30T03:59:58;9.8;70.1
78536;SHT31;67829;51.968;5.684;2024-01-30T04:02:27;9.8;69.9
78536;SHT31;67829;51.968;5.684;2024-01-30T04:04:55;9.8;69.9
78536;SHT31;67829;51.968;5.684;2024-01-30T04:07:25;9.8;69.9
78536;SHT31;67829;51.968;5.684;2024-01-30T04:09:53;9.9;70.0
78536;SHT31;67829;51.968;5.684;2024-01-30T04:12:22;9.9;69.9
78536;SHT31;67829;51.968;5.684;2024-01-30T04:14:51;9.9;69.9
78536;SHT31;67829;51.968;5.684;2024-01-30T04:17:19;9.9;69.8
78536;SHT31;67829;51.968;5.684;2024-01-30T04:19:48;9.9;69.7
78536;SHT31;67829;51.968;5.684;2024-01-30T04:22:16;9.9;69.7
78536;SHT31;67829;51.968;5.684;2024-01-30T04:24:45;9.9;69.8
78536;SHT31;67829;51.968;5.684;2024-01-30T04:27:13;9.9;69.8
78536;SHT31;67829;51.968;5.684;2024-01-30T04:29:41;9.9;69.8
78536;SHT31;67829;51.968;5.684;2024-01-30T04:32:10;9.9;69.7
78536;SHT31;67829;51.968;5.684;2024-01-30T04:34:39;9.9;69.8
78536;SHT31;67829;51.968;5.684;2024-01-30T04:37:07;9.9;69.8
78536;SHT31;67829;51.968;5.684;2024-01-30T04:39:36;9.9;69.8
78536;SHT31;67829;51.968;5.684;2024-01-30T04:42:05;9.9;69.8
78536;SHT31;67829;51.968;5.684;2024-01-30T04:44:34;9.9;69.8
78536;SHT31;67829;51.968;5.684;2024-01-30T04:47:02;9.9;69.7
78536;SHT31;67829;51.968;5.684;2024-01-30T04:49:34;9.9;69.7
78536;SHT31;67829;51.968;5.684;2024-01-30T04:52:03;9.9;69.8
78536;SHT31;67829;51.968;5.684;2024-01-30T04:54:32;9.9;69.8
78536;SHT31;67829;51.968;5.684;2024-01-30T04:57:01;10.0;69.9
78536;SHT31;67829;51.968;5.684;2024-01-30T04:59:32;10.0;69.8
78536;SHT31;67829;51.968;5.684;2024-01-30T05:02:00;10.0;69.9
78536;SHT31;67829;51.968;5.684;2024-01-30T05:04:29;10.0;69.9
78536;SHT31;67829;51.968;5.684;2024-01-30T05:06:57;10.0;69.9
78536;SHT31;67829;51.968;5.684;2024-01-30T05:09:26;10.0;69.9
78536;SHT31;67829;51.968;5.684;2024-01-30T05:11:56;10.0;69.9
78536;SHT31;67829;51.968;5.684;2024-01-30T05:14:25;10.0;69.9
78536;SHT31;67829;51.968;5.684;2024-01-30T05:16:53;10.0;69.8
78536;SHT31;67829;51.968;5.684;2024-01-30T05:19:22;10.0;69.8
78536;SHT31;67829;51.968;5.684;2024-01-30T05:21:50;10.1;69.8
78536;SHT31;67829;51.968;5.684;2024-01-30T05:24:19;10.1;69.9
78536;SHT31;67829;51.968;5.684;2024-01-30T05:26:47;10.1;69.9
78536;SHT31;67829;51.968;5.684;2024-01-30T05:29:18;10.1;69.9
78536;SHT31;67829;51.968;5.684;2024-01-30T05:31:46;10.1;69.9
78536;SHT31;67829;51.968;5.684;2024-01-30T05:34:16;10.1;69.9
78536;SHT31;67829;51.968;5.684;2024-01-30T05:36:44;10.1;69.9
78536;SHT31;67829;51.968;5.684;2024-01-30T05:39:13;10.1;70.0
78536;SHT31;67829;51.968;5.684;2024-01-30T05:41:42;10.1;70.1
78536;SHT31;67829;51.968;5.684;2024-01-30T05:44:11;10.2;70.1
78536;SHT31;67829;51.968;5.684;2024-01-30T05:46:39;10.2;70.1
78536;SHT31;67829;51.968;5.684;2024-01-30T05:49:08;10.2;70.1
78536;SHT31;67829;51.968;5.684;2024-01-30T05:51:36;10.2;70.2
78536;SHT31;67829;51.968;5.684;2024-01-30T05:54:05;10.2;70.1
78536;SHT31;67829;51.968;5.684;2024-01-30T05:56:33;10.2;70.1
78536;SHT31;67829;51.968;5.684;2024-01-30T05:59:02;10.2;69.5
78536;SHT31;67829;51.968;5.684;2024-01-30T06:01:30;10.2;69.9
78536;SHT31;67829;51.968;5.684;2024-01-30T06:04:00;10.3;69.8
78536;SHT31;67829;51.968;5.684;2024-01-30T06:06:29;10.3;69.7
78536;SHT31;67829;51.968;5.684;2024-01-30T06:08:58;10.3;69.9
78536;SHT31;67829;51.968;5.684;2024-01-30T06:11:26;10.3;69.9
78536;SHT31;67829;51.968;5.684;2024-01-30T06:13:55;10.3;69.8
78536;SHT31;67829;51.968;5.684;2024-01-30T06:16:23;10.3;69.9
78536;SHT31;67829;51.968;5.684;2024-01-30T06:18:56;10.3;69.8
78536;SHT31;67829;51.968;5.684;2024-01-30T06:21:25;10.3;69.7
78536;SHT31;67829;51.968;5.684;2024-01-30T06:23:54;10.4;69.9
78536;SHT31;67829;51.968;5.684;2024-01-30T06:26:23;10.4;69.9
78536;SHT31;67829;51.968;5.684;2024-01-30T06:28:51;10.4;69.7
78536;SHT31;67829;51.968;5.684;2024-01-30T06:31:19;10.4;69.8
78536;SHT31;67829;51.968;5.684;2024-01-30T06:33:49;10.4;69.5
78536;SHT31;67829;51.968;5.684;2024-01-30T06:36:18;10.4;69.8
78536;SHT31;67829;51.968;5.684;2024-01-30T06:38:46;10.4;69.8
78536;SHT31;67829;51.968;5.684;2024-01-30T06:41:15;10.4;69.3
78536;SHT31;67829;51.968;5.684;2024-01-30T06:43:43;10.5;69.8
78536;SHT31;67829;51.968;5.684;2024-01-30T06:46:12;10.5;69.7
78536;SHT31;67829;51.968;5.684;2024-01-30T06:48:41;10.5;69.9
78536;SHT31;67829;51.968;5.684;2024-01-30T06:51:11;10.5;70.0
78536;SHT31;67829;51.968;5.684;2024-01-30T06:53:40;10.5;69.6
78536;SHT31;67829;51.968;5.684;2024-01-30T06:56:08;10.5;69.5
78536;SHT31;67829;51.968;5.684;2024-01-30T06:58:37;10.5;69.5
78536;SHT31;67829;51.968;5.684;2024-01-30T07:01:06;10.5;69.4
78536;SHT31;67829;51.968;5.684;2024-01-30T07:03:36;10.5;69.8
78536;SHT31;67829;51.968;5.684;2024-01-30T07:06:04;10.5;69.8
78536;SHT31;67829;51.968;5.684;2024-01-30T07:08:33;10.5;70.0
78536;SHT31;67829;51.968;5.684;2024-01-30T07:11:02;10.5;69.6
78536;SHT31;67829;51.968;5.684;2024-01-30T07:13:31;10.5;69.6
78536;SHT31;67829;51.968;5.684;2024-01-30T07:15:59;10.5;69.8
78536;SHT31;67829;51.968;5.684;2024-01-30T07:18:28;10.6;69.4
78536;SHT31;67829;51.968;5.684;2024-01-30T07:20:56;10.6;69.4
78536;SHT31;67829;51.968;5.684;2024-01-30T07:23:25;10.6;69.4
78536;SHT31;67829;51.968;5.684;2024-01-30T07:25:53;10.6;69.7
78536;SHT31;67829;51.968;5.684;2024-01-30T07:28:22;10.6;69.7
78536;SHT31;67829;51.968;5.684;2024-01-30T07:30:50;10.6;69.4
78536;SHT31;67829;51.968;5.684;2024-01-30T07:33:19;10.6;69.7
78536;SHT31;67829;51.968;5.684;2024-01-30T07:35:48;10.6;69.4
78536;SHT31;67829;51.968;5.684;2024-01-30T07:38:16;10.6;69.6
78536;SHT31;67829;51.968;5.684;2024-01-30T07:40:45;10.6;69.7
78536;SHT31;67829;51.968;5.684;2024-01-30T07:43:15;10.6;69.7
78536;SHT31;67829;51.968;5.684;2024-01-30T07:45:44;10.6;70.0
78536;SHT31;67829;51.968;5.684;2024-01-30T07:48:12;10.6;70.2
78536;SHT31;67829;51.968;5.684;2024-01-30T07:50:42;10.6;70.4
78536;SHT31;67829;51.968;5.684;2024-01-30T07:53:10;10.6;70.9
78536;SHT31;67829;51.968;5.684;2024-01-30T07:55:39;10.6;71.1
78536;SHT31;67829;51.968;5.684;2024-01-30T07:58:10;10.6;71.0
78536;SHT31;67829;51.968;5.684;2024-01-30T08:00:38;10.6;71.1
78536;SHT31;67829;51.968;5.684;2024-01-30T08:03:09;10.7;71.2
78536;SHT31;67829;51.968;5.684;2024-01-30T08:05:39;10.7;71.2
78536;SHT31;67829;51.968;5.684;2024-01-30T08:08:08;10.7;71.2
78536;SHT31;67829;51.968;5.684;2024-01-30T08:10:36;10.7;71.3
78536;SHT31;67829;51.968;5.684;2024-01-30T08:13:05;10.8;71.3
78536;SHT31;67829;51.968;5.684;2024-01-30T08:15:35;10.8;71.3
78536;SHT31;67829;51.968;5.684;2024-01-30T08:18:04;10.8;71.4
78536;SHT31;67829;51.968;5.684;2024-01-30T08:20:33;10.9;71.4
78536;SHT31;67829;51.968;5.684;2024-01-30T08:23:02;10.9;71.5
78536;SHT31;67829;51.968;5.684;2024-01-30T08:25:30;10.9;71.6
78536;SHT31;67829;51.968;5.684;2024-01-30T08:27:59;11.0;71.5
78536;SHT31;67829;51.968;5.684;2024-01-30T08:30:28;11.0;71.6
78536;SHT31;67829;51.968;5.684;2024-01-30T08:32:57;11.0;71.6
78536;SHT31;67829;51.968;5.684;2024-01-30T08:35:25;11.1;71.5
78536;SHT31;67829;51.968;5.684;2024-01-30T08:37:54;11.1;71.6
78536;SHT31;67829;51.968;5.684;2024-01-30T08:40:22;11.1;71.6
78536;SHT31;67829;51.968;5.684;2024-01-30T08:42:51;11.2;71.7
78536;SHT31;67829;51.968;5.684;2024-01-30T08:45:19;11.2;71.7
78536;SHT31;67829;51.968;5.684;2024-01-30T08:47:48;11.3;71.6
78536;SHT31;67829;51.968;5.684;2024-01-30T08:50:16;11.3;71.6
78536;SHT31;67829;51.968;5.684;2024-01-30T08:52:45;11.3;71.6
78536;SHT31;67829;51.968;5.684;2024-01-30T08:55:14;11.4;71.5
78536;SHT31;67829;51.968;5.684;2024-01-30T08:57:42;11.4;71.5
78536;SHT31;67829;51.968;5.684;2024-01-30T09:00:15;11.4;71.5
78536;SHT31;67829;51.968;5.684;2024-01-30T09:02:43;11.5;71.5
78536;SHT31;67829;51.968;5.684;2024-01-30T09:05:14;11.5;71.4
78536;SHT31;67829;51.968;5.684;2024-01-30T09:07:45;11.6;71.4
78536;SHT31;67829;51.968;5.684;2024-01-30T09:10:15;11.6;71.5
78536;SHT31;67829;51.968;5.684;2024-01-30T09:12:46;11.6;71.5
78536;SHT31;67829;51.968;5.684;2024-01-30T09:15:15;11.7;71.0
78536;SHT31;67829;51.968;5.684;2024-01-30T09:17:44;11.7;70.8
78536;SHT31;67829;51.968;5.684;2024-01-30T09:20:13;11.7;70.8
78536;SHT31;67829;51.968;5.684;2024-01-30T09:22:43;11.8;70.5
78536;SHT31;67829;51.968;5.684;2024-01-30T09:25:12;11.8;70.5
78536;SHT31;67829;51.968;5.684;2024-01-30T09:27:41;11.8;70.3
78536;SHT31;67829;51.968;5.684;2024-01-30T09:30:10;11.9;70.4
78536;SHT31;67829;51.968;5.684;2024-01-30T09:32:39;11.9;70.3
78536;SHT31;67829;51.968;5.684;2024-01-30T09:35:08;11.9;70.5
78536;SHT31;67829;51.968;5.684;2024-01-30T09:37:37;11.9;70.8
78536;SHT31;67829;51.968;5.684;2024-01-30T09:40:07;11.9;71.0
78536;SHT31;67829;51.968;5.684;2024-01-30T09:42:37;12.0;71.1
78536;SHT31;67829;51.968;5.684;2024-01-30T09:45:06;12.0;71.0
78536;SHT31;67829;51.968;5.684;2024-01-30T09:47:40;12.0;71.1
78536;SHT31;67829;51.968;5.684;2024-01-30T09:50:11;12.0;71.0
78536;SHT31;67829;51.968;5.684;2024-01-30T09:52:41;12.1;71.5
78536;SHT31;67829;51.968;5.684;2024-01-30T09:55:09;12.1;71.4
78536;SHT31;67829;51.968;5.684;2024-01-30T09:57:41;12.1;71.3
78536;SHT31;67829;51.968;5.684;2024-01-30T10:00:11;12.2;71.4
78536;SHT31;67829;51.968;5.684;2024-01-30T10:02:40;12.2;70.9
78536;SHT31;67829;51.968;5.684;2024-01-30T10:05:11;12.2;70.9
78536;SHT31;67829;51.968;5.684;2024-01-30T10:07:52;12.2;70.9
78536;SHT31;67829;51.968;5.684;2024-01-30T10:10:23;12.2;70.8
78536;SHT31;67829;51.968;5.684;2024-01-30T10:12:52;12.3;70.9
78536;SHT31;67829;51.968;5.684;2024-01-30T10:15:20;12.3;71.1
78536;SHT31;67829;51.968;5.684;2024-01-30T10:17:51;12.3;71.0
78536;SHT31;67829;51.968;5.684;2024-01-30T10:20:20;12.3;71.1
78536;SHT31;67829;51.968;5.684;2024-01-30T10:22:49;12.3;71.2
78536;SHT31;67829;51.968;5.684;2024-01-30T10:25:20;12.4;71.1
78536;SHT31;67829;51.968;5.684;2024-01-30T10:27:52;12.4;71.0
78536;SHT31;67829;51.968;5.684;2024-01-30T10:30:22;12.4;71.0
78536;SHT31;67829;51.968;5.684;2024-01-30T10:32:51;12.4;70.9
78536;SHT31;67829;51.968;5.684;2024-01-30T10:35:20;12.4;70.7
78536;SHT31;67829;51.968;5.684;2024-01-30T10:37:49;12.4;70.7
78536;SHT31;67829;51.968;5.684;2024-01-30T10:40:21;12.5;70.5
78536;SHT31;67829;51.968;5.684;2024-01-30T10:42:55;12.5;70.4
78536;SHT31;67829;51.968;5.684;2024-01-30T10:45:26;12.5;70.6
78536;SHT31;67829;51.968;5.684;2024-01-30T10:47:59;12.5;70.3
78536;SHT31;67829;51.968;5.684;2024-01-30T10:50:31;12.6;70.2
78536;SHT31;67829;51.968;5.684;2024-01-30T10:53:01;12.6;70.2
78536;SHT31;67829;51.968;5.684;2024-01-30T10:55:31;12.6;70.2
78536;SHT31;67829;51.968;5.684;2024-01-30T10:58:01;12.7;70.0
78536;SHT31;67829;51.968;5.684;2024-01-30T11:00:30;12.7;70.2
78536;SHT31;67829;51.968;5.684;2024-01-30T11:03:01;12.8;70.1
78536;SHT31;67829;51.968;5.684;2024-01-30T11:05:30;12.8;70.1
78536;SHT31;67829;51.968;5.684;2024-01-30T11:08:00;12.9;70.4
78536;SHT31;67829;51.968;5.684;2024-01-30T11:10:48;12.9;70.4
78536;SHT31;67829;51.968;5.684;2024-01-30T11:13:19;13.0;70.2
78536;SHT31;67829;51.968;5.684;2024-01-30T11:15:49;13.0;70.0
78536;SHT31;67829;51.968;5.684;2024-01-30T11:18:25;13.1;69.8
78536;SHT31;67829;51.968;5.684;2024-01-30T11:20:56;13.1;69.6
78536;SHT31;67829;51.968;5.684;2024-01-30T11:23:28;13.1;69.5
78536;SHT31;67829;51.968;5.684;2024-01-30T11:25:58;13.2;69.1
78536;SHT31;67829;51.968;5.684;2024-01-30T11:28:34;13.2;69.0
78536;SHT31;67829;51.968;5.684;2024-01-30T11:31:06;13.2;69.0
78536;SHT31;67829;51.968;5.684;2024-01-30T11:33:36;13.2;69.2
78536;SHT31;67829;51.968;5.684;2024-01-30T11:36:06;13.2;68.9
78536;SHT31;67829;51.968;5.684;2024-01-30T11:38:37;13.3;68.8
78536;SHT31;67829;51.968;5.684;2024-01-30T11:41:08;13.3;68.6
78536;SHT31;67829;51.968;5.684;2024-01-30T11:43:39;13.3;68.1
78536;SHT31;67829;51.968;5.684;2024-01-30T11:46:07;13.3;67.6
78536;SHT31;67829;51.968;5.684;2024-01-30T11:48:37;13.3;67.5
78536;SHT31;67829;51.968;5.684;2024-01-30T11:51:05;13.3;66.6
78536;SHT31;67829;51.968;5.684;2024-01-30T11:53:34;13.4;66.8
78536;SHT31;67829;51.968;5.684;2024-01-30T11:56:06;13.4;66.3
78536;SHT31;67829;51.968;5.684;2024-01-30T11:58:35;13.4;66.1
78536;SHT31;67829;51.968;5.684;2024-01-30T12:01:03;13.4;65.5
78536;SHT31;67829;51.968;5.684;2024-01-30T12:03:32;13.5;65.5
78536;SHT31;67829;51.968;5.684;2024-01-30T12:06:03;13.5;65.7
78536;SHT31;67829;51.968;5.684;2024-01-30T12:08:33;13.5;65.3
78536;SHT31;67829;51.968;5.684;2024-01-30T12:11:02;13.5;65.6
78536;SHT31;67829;51.968;5.684;2024-01-30T12:13:32;13.5;65.2
78536;SHT31;67829;51.968;5.684;2024-01-30T12:16:01;13.5;64.6
78536;SHT31;67829;51.968;5.684;2024-01-30T12:18:30;13.5;63.9
78536;SHT31;67829;51.968;5.684;2024-01-30T12:20:59;13.5;63.7
78536;SHT31;67829;51.968;5.684;2024-01-30T12:23:29;13.4;63.3
78536;SHT31;67829;51.968;5.684;2024-01-30T12:25:57;13.4;63.4
78536;SHT31;67829;51.968;5.684;2024-01-30T12:28:26;13.4;63.3
78536;SHT31;67829;51.968;5.684;2024-01-30T12:30:56;13.3;63.4
78536;SHT31;67829;51.968;5.684;2024-01-30T12:33:30;13.3;63.1
78536;SHT31;67829;51.968;5.684;2024-01-30T12:36:01;13.3;63.2
78536;SHT31;67829;51.968;5.684;2024-01-30T12:38:30;13.2;62.8
78536;SHT31;67829;51.968;5.684;2024-01-30T12:40:59;13.2;63.0
78536;SHT31;67829;51.968;5.684;2024-01-30T12:43:29;13.2;62.5
78536;SHT31;67829;51.968;5.684;2024-01-30T12:45:58;13.1;62.1
78536;SHT31;67829;51.968;5.684;2024-01-30T12:48:28;13.1;62.0
78536;SHT31;67829;51.968;5.684;2024-01-30T12:50:58;13.1;62.1
78536;SHT31;67829;51.968;5.684;2024-01-30T12:53:26;13.1;62.5
78536;SHT31;67829;51.968;5.684;2024-01-30T12:55:55;13.0;62.8
78536;SHT31;67829;51.968;5.684;2024-01-30T12:58:24;13.0;62.8
78536;SHT31;67829;51.968;5.684;2024-01-30T13:00:53;13.0;62.7
78536;SHT31;67829;51.968;5.684;2024-01-30T13:03:23;13.0;62.2
78536;SHT31;67829;51.968;5.684;2024-01-30T13:05:52;13.0;62.6
78536;SHT31;67829;51.968;5.684;2024-01-30T13:08:22;13.0;62.3
78536;SHT31;67829;51.968;5.684;2024-01-30T13:10:50;13.0;62.5
78536;SHT31;67829;51.968;5.684;2024-01-30T13:13:19;13.0;62.3
78536;SHT31;67829;51.968;5.684;2024-01-30T13:15:48;13.0;62.2
78536;SHT31;67829;51.968;5.684;2024-01-30T13:18:16;13.0;61.6
78536;SHT31;67829;51.968;5.684;2024-01-30T13:20:45;12.9;61.7
78536;SHT31;67829;51.968;5.684;2024-01-30T13:23:13;12.9;61.9
78536;SHT31;67829;51.968;5.684;2024-01-30T13:25:42;12.9;62.4
78536;SHT31;67829;51.968;5.684;2024-01-30T13:28:10;12.9;62.6
78536;SHT31;67829;51.968;5.684;2024-01-30T13:30:41;12.8;62.5
78536;SHT31;67829;51.968;5.684;2024-01-30T13:33:09;12.8;62.4
78536;SHT31;67829;51.968;5.684;2024-01-30T13:35:38;12.7;62.1
78536;SHT31;67829;51.968;5.684;2024-01-30T13:38:09;12.6;62.0
78536;SHT31;67829;51.968;5.684;2024-01-30T13:40:37;12.6;62.5
78536;SHT31;67829;51.968;5.684;2024-01-30T13:43:06;12.5;62.6
78536;SHT31;67829;51.968;5.684;2024-01-30T13:45:34;12.4;62.8
78536;SHT31;67829;51.968;5.684;2024-01-30T13:48:04;12.4;62.7
78536;SHT31;67829;51.968;5.684;2024-01-30T13:50:32;12.4;62.7
78536;SHT31;67829;51.968;5.684;2024-01-30T13:53:02;12.3;62.8
78536;SHT31;67829;51.968;5.684;2024-01-30T13:55:31;12.3;63.6
78536;SHT31;67829;51.968;5.684;2024-01-30T13:58:00;12.2;63.4
78536;SHT31;67829;51.968;5.684;2024-01-30T14:00:29;12.2;63.3
78536;SHT31;67829;51.968;5.684;2024-01-30T14:02:58;12.2;63.8
78536;SHT31;67829;51.968;5.684;2024-01-30T14:05:27;12.2;64.1
78536;SHT31;67829;51.968;5.684;2024-01-30T14:07:56;12.2;63.7
78536;SHT31;67829;51.968;5.684;2024-01-30T14:10:26;12.2;63.7
78536;SHT31;67829;51.968;5.684;2024-01-30T14:12:54;12.2;64.2
78536;SHT31;67829;51.968;5.684;2024-01-30T14:15:25;12.2;63.8
78536;SHT31;67829;51.968;5.684;2024-01-30T14:17:54;12.2;64.0
78536;SHT31;67829;51.968;5.684;2024-01-30T14:20:23;12.2;64.2
78536;SHT31;67829;51.968;5.684;2024-01-30T14:22:52;12.2;64.3
78536;SHT31;67829;51.968;5.684;2024-01-30T14:25:22;12.2;63.7
78536;SHT31;67829;51.968;5.684;2024-01-30T14:27:51;12.2;63.7
78536;SHT31;67829;51.968;5.684;2024-01-30T14:30:19;12.2;64.0
78536;SHT31;67829;51.968;5.684;2024-01-30T14:32:48;12.2;63.8
78536;SHT31;67829;51.968;5.684;2024-01-30T14:35:17;12.2;63.4
78536;SHT31;67829;51.968;5.684;2024-01-30T14:37:45;12.2;63.8
78536;SHT31;67829;51.968;5.684;2024-01-30T14:40:14;12.2;63.9
78536;SHT31;67829;51.968;5.684;2024-01-30T14:42:45;12.2;64.2
78536;SHT31;67829;51.968;5.684;2024-01-30T14:45:14;12.2;64.5
78536;SHT31;67829;51.968;5.684;2024-01-30T14:47:45;12.2;64.9
78536;SHT31;67829;51.968;5.684;2024-01-30T14:50:14;12.2;65.0
78536;SHT31;67829;51.968;5.684;2024-01-30T14:52:43;12.1;65.2
78536;SHT31;67829;51.968;5.684;2024-01-30T14:55:14;12.1;65.2
78536;SHT31;67829;51.968;5.684;2024-01-30T14:57:42;12.1;65.5
78536;SHT31;67829;51.968;5.684;2024-01-30T15:00:13;12.1;65.3
78536;SHT31;67829;51.968;5.684;2024-01-30T15:02:42;12.1;65.7
78536;SHT31;67829;51.968;5.684;2024-01-30T15:05:11;12.0;65.8
78536;SHT31;67829;51.968;5.684;2024-01-30T15:07:40;12.0;65.3
78536;SHT31;67829;51.968;5.684;2024-01-30T15:10:09;12.0;65.5
78536;SHT31;67829;51.968;5.684;2024-01-30T15:12:38;12.0;65.3
78536;SHT31;67829;51.968;5.684;2024-01-30T15:15:07;11.9;65.5
78536;SHT31;67829;51.968;5.684;2024-01-30T15:17:36;11.9;65.9
78536;SHT31;67829;51.968;5.684;2024-01-30T15:20:06;11.9;66.0
78536;SHT31;67829;51.968;5.684;2024-01-30T15:22:35;11.9;66.0
78536;SHT31;67829;51.968;5.684;2024-01-30T15:25:05;11.9;65.9
78536;SHT31;67829;51.968;5.684;2024-01-30T15:27:33;11.8;66.2
78536;SHT31;67829;51.968;5.684;2024-01-30T15:30:02;11.8;66.2
78536;SHT31;67829;51.968;5.684;2024-01-30T15:32:31;11.8;66.5
78536;SHT31;67829;51.968;5.684;2024-01-30T15:35:00;11.8;67.1
78536;SHT31;67829;51.968;5.684;2024-01-30T15:37:30;11.7;67.6
78536;SHT31;67829;51.968;5.684;2024-01-30T15:39:59;11.7;68.2
78536;SHT31;67829;51.968;5.684;2024-01-30T15:42:27;11.7;68.6
78536;SHT31;67829;51.968;5.684;2024-01-30T15:44:56;11.7;69.1
78536;SHT31;67829;51.968;5.684;2024-01-30T15:47:25;11.6;69.5
78536;SHT31;67829;51.968;5.684;2024-01-30T15:49:54;11.6;69.8
78536;SHT31;67829;51.968;5.684;2024-01-30T15:52:22;11.6;69.7
78536;SHT31;67829;51.968;5.684;2024-01-30T15:54:51;11.5;69.7
78536;SHT31;67829;51.968;5.684;2024-01-30T15:57:20;11.5;69.6
78536;SHT31;67829;51.968;5.684;2024-01-30T15:59:50;11.4;69.9
78536;SHT31;67829;51.968;5.684;2024-01-30T16:02:19;11.4;69.9
78536;SHT31;67829;51.968;5.684;2024-01-30T16:04:48;11.4;70.0
78536;SHT31;67829;51.968;5.684;2024-01-30T16:07:17;11.3;70.2
78536;SHT31;67829;51.968;5.684;2024-01-30T16:09:45;11.3;70.4
78536;SHT31;67829;51.968;5.684;2024-01-30T16:12:13;11.3;70.4
78536;SHT31;67829;51.968;5.684;2024-01-30T16:14:42;11.2;70.6
78536;SHT31;67829;51.968;5.684;2024-01-30T16:17:10;11.2;70.7